Terminal Aerodrome Forecast
Issued by NWS

Home | Current Version | Previous Version | Text Only | Print | Product List | Glossary On
Versions: 1 2 3 4 5 6 7 8 9 10 11 12 13 14 15 16 17 18 19 20 21 22 23 24 25 26 27 28 29 30 31 32 33 34 35 36 37 38 39 40 41 42 43 44 45 46
000
FTUS46 KOTX 290529 CCA
TAFCOE
TAF COR
KCOE 290529Z 2906/3006 07006KT 6SM BR FEW002 SCT025
      TEMPO 2906/2908 1SM BCFG BKN002
     FM290800 05007KT 1SM BR OVC002
     FM291500 04006KT P6SM OVC008
     FM291700 04005KT P6SM BKN015
     FM292200 01004KT P6SM SCT020
      AMD LTD TO CLD AND VIS=

USA.gov is the U.S. government's official web portal to all federal, state and local government web resources and services.